Time;durP1;ratioP1;P1;durP2;ratioP2;P2;SDS_P1;SDS_P2;PMS_P1;PMS_P2;Temp;Humidity;BMP_temperature;BMP_pressure;BME280_temperature;BME280_humidity;BME280_pressure;Samples;Min_cycle;Max_cycle;Signal;HPM_P1;HPM_P2
2022/06/16 00:02:01;;;;;;;9.35;7.25;;;13.70;99.90;;;;;;5029995;28;20048;-79
2022/06/16 00:04:28;;;;;;;8.48;7.65;;;13.70;99.90;;;;;;5048892;28;20044;-79
2022/06/16 00:06:55;;;;;;;9.60;7.78;;;13.70;99.90;;;;;;5048111;28;20051;-79
2022/06/16 00:09:23;;;;;;;11.00;7.35;;;13.60;99.90;;;;;;5053071;28;20036;-78
2022/06/16 00:11:49;;;;;;;10.10;7.65;;;13.70;99.90;;;;;;5031569;28;20461;-78
2022/06/16 00:14:16;;;;;;;9.20;6.88;;;13.60;99.90;;;;;;5081390;28;20056;-78
2022/06/16 00:16:42;;;;;;;9.25;6.97;;;13.60;99.90;;;;;;5020809;28;20067;-78
2022/06/16 00:19:08;;;;;;;8.80;6.97;;;13.50;99.90;;;;;;5047005;28;20051;-78
2022/06/16 00:21:34;;;;;;;8.40;6.70;;;13.40;99.90;;;;;;5046172;28;20044;-78
2022/06/16 00:24:00;;;;;;;11.30;6.88;;;13.40;99.90;;;;;;5033663;28;20796;-78
2022/06/16 00:26:28;;;;;;;9.68;6.90;;;13.40;99.90;;;;;;5031104;28;20051;-78
2022/06/16 00:28:54;;;;;;;12.68;7.38;;;13.40;99.90;;;;;;5049068;28;20495;-78
2022/06/16 00:31:23;;;;;;;9.32;7.53;;;13.40;99.90;;;;;;5065748;28;20411;-78
2022/06/16 00:33:50;;;;;;;9.55;7.05;;;13.40;99.90;;;;;;5038498;28;20048;-79
2022/06/16 00:36:17;;;;;;;11.40;7.05;;;13.40;99.90;;;;;;5032237;28;20044;-80
2022/06/16 00:38:44;;;;;;;9.27;6.25;;;13.40;99.90;;;;;;5049685;28;20039;-78
2022/06/16 00:41:11;;;;;;;10.02;6.40;;;13.40;99.90;;;;;;5031398;28;20174;-78
2022/06/16 00:43:37;;;;;;;10.50;7.18;;;13.40;99.90;;;;;;5045791;28;20123;-78
2022/06/16 00:46:18;;;;;;;16.23;7.65;;;13.30;99.90;;;;;;5013311;28;20059;-78
2022/06/16 00:48:51;;;;;;;10.48;7.38;;;13.30;99.90;;;;;;5061834;28;20145;-79
2022/06/16 00:51:32;;;;;;;8.45;6.85;;;13.20;99.90;;;;;;5064916;28;20048;-78
2022/06/16 00:54:21;;;;;;;9.80;7.30;;;13.20;99.90;;;;;;5064583;28;20040;-79
2022/06/16 00:56:49;;;;;;;8.35;6.53;;;13.20;99.90;;;;;;5048019;28;20097;-79
2022/06/16 00:59:15;;;;;;;9.80;7.47;;;13.20;99.90;;;;;;5032297;28;20044;-78
2022/06/16 01:01:46;;;;;;;8.63;6.68;;;13.10;99.90;;;;;;5060066;28;20080;-79
2022/06/16 01:07:03;;;;;;;10.90;6.43;;;13.10;99.90;;;;;;5076515;28;20126;-80
2022/06/16 01:09:31;;;;;;;9.07;6.35;;;13.10;99.90;;;;;;5045221;28;20043;-79
2022/06/16 01:15:01;;;;;;;9.30;6.57;;;13.00;99.90;;;;;;5060642;28;20068;-78
2022/06/16 01:17:36;;;;;;;9.55;7.35;;;13.00;99.90;;;;;;5076972;28;20553;-78
2022/06/16 01:20:11;;;;;;;12.88;7.07;;;12.90;99.90;;;;;;5047599;28;20062;-79
2022/06/16 01:22:46;;;;;;;8.32;6.18;;;12.90;99.90;;;;;;5047498;28;20475;-79
2022/06/16 01:25:31;;;;;;;9.25;6.88;;;13.00;99.90;;;;;;5051257;28;20496;-78
2022/06/16 01:28:43;;;;;;;8.98;6.57;;;13.00;99.90;;;;;;5038457;28;20075;-80
2022/06/16 01:31:20;;;;;;;11.20;7.07;;;13.00;99.90;;;;;;4989806;28;20052;-80
2022/06/16 01:33:58;;;;;;;12.07;6.78;;;13.00;99.90;;;;;;5022933;28;20478;-80
2022/06/16 01:36:38;;;;;;;11.27;7.38;;;13.00;99.90;;;;;;5032158;28;20415;-80
2022/06/16 01:39:12;;;;;;;8.52;7.00;;;13.00;99.90;;;;;;5048283;28;20094;-80
2022/06/16 01:41:52;;;;;;;10.23;6.97;;;12.90;99.90;;;;;;5064140;28;20044;-80
2022/06/16 01:44:27;;;;;;;10.73;7.18;;;12.90;99.90;;;;;;5054737;28;20637;-80
2022/06/16 01:47:00;;;;;;;9.98;7.90;;;12.80;99.90;;;;;;5034577;28;20054;-80
2022/06/16 01:49:33;;;;;;;9.93;7.80;;;12.80;99.90;;;;;;5051387;28;20036;-80
2022/06/16 01:52:12;;;;;;;10.57;8.10;;;12.80;99.90;;;;;;5047162;28;20373;-80
2022/06/16 01:54:46;;;;;;;9.70;7.63;;;12.80;99.90;;;;;;5061174;28;20069;-80
2022/06/16 01:57:25;;;;;;;10.90;7.57;;;12.80;99.90;;;;;;5046924;28;20050;-80
2022/06/16 02:00:08;;;;;;;9.88;7.70;;;12.80;99.90;;;;;;5048520;28;20163;-79
2022/06/16 02:03:07;;;;;;;11.82;7.97;;;12.80;99.90;;;;;;5071300;28;20135;-79
2022/06/16 02:05:52;;;;;;;8.27;7.00;;;12.70;99.90;;;;;;5078776;28;20044;-79
2022/06/16 02:08:31;;;;;;;11.63;8.05;;;12.80;99.90;;;;;;5048312;28;20050;-79
2022/06/16 02:11:11;;;;;;;11.45;7.60;;;12.70;99.90;;;;;;5075761;28;20052;-79
2022/06/16 02:13:44;;;;;;;11.50;7.63;;;12.70;99.90;;;;;;5045116;28;20050;-79
2022/06/16 02:16:19;;;;;;;12.15;8.55;;;12.60;99.90;;;;;;5060140;28;20047;-80
2022/06/16 02:18:52;;;;;;;10.98;8.98;;;12.60;99.90;;;;;;5045509;28;22081;-80
2022/06/16 02:21:27;;;;;;;10.73;8.38;;;12.60;99.90;;;;;;5060313;28;20409;-79
2022/06/16 02:23:55;;;;;;;11.93;8.80;;;12.60;99.90;;;;;;5068535;28;20054;-80
2022/06/16 02:26:21;;;;;;;12.02;7.65;;;12.60;99.90;;;;;;5049875;28;20071;-79
2022/06/16 02:28:59;;;;;;;10.43;8.65;;;12.60;99.90;;;;;;5047723;28;20040;-79
2022/06/16 02:31:34;;;;;;;11.75;8.05;;;12.50;99.90;;;;;;5066385;28;20078;-79
2022/06/16 02:34:36;;;;;;;11.45;7.68;;;12.50;99.90;;;;;;5052592;28;20135;-80
2022/06/16 02:37:28;;;;;;;10.60;7.95;;;12.60;99.90;;;;;;5093507;28;20470;-79
2022/06/16 02:40:28;;;;;;;11.98;8.63;;;12.60;99.90;;;;;;5032686;28;20504;-79
2022/06/16 02:43:41;;;;;;;10.88;7.25;;;12.50;99.90;;;;;;5051572;28;20056;-79
2022/06/16 02:46:09;;;;;;;11.52;7.38;;;12.60;99.90;;;;;;5034477;28;20506;-79
2022/06/16 02:48:41;;;;;;;8.27;7.25;;;12.50;99.90;;;;;;5049621;28;20044;-80
2022/06/16 02:51:13;;;;;;;12.82;8.80;;;12.50;99.90;;;;;;5042822;28;20042;-79
2022/06/16 02:56:39;;;;;;;11.10;7.55;;;12.50;99.90;;;;;;5079821;28;20420;-79
2022/06/16 02:59:13;;;;;;;11.48;8.40;;;12.60;99.90;;;;;;5086931;28;20464;-79
2022/06/16 03:01:42;;;;;;;12.27;8.65;;;12.60;99.90;;;;;;5042458;28;20086;-79
2022/06/16 03:04:15;;;;;;;10.90;8.38;;;12.60;99.90;;;;;;5042461;28;20832;-79
2022/06/16 03:06:45;;;;;;;10.38;8.00;;;12.60;99.90;;;;;;5046363;28;20789;-79
2022/06/16 03:09:13;;;;;;;10.27;7.40;;;12.60;99.90;;;;;;5053765;28;20043;-79
2022/06/16 03:11:41;;;;;;;12.65;7.72;;;12.60;99.90;;;;;;5032400;28;20047;-79
2022/06/16 03:14:10;;;;;;;10.23;7.90;;;12.50;99.90;;;;;;5061863;28;20123;-79
2022/06/16 03:16:41;;;;;;;11.13;8.20;;;12.60;99.90;;;;;;5047654;28;20043;-79
2022/06/16 03:19:07;;;;;;;10.27;7.63;;;12.50;99.90;;;;;;5047504;28;20455;-79
2022/06/16 03:21:34;;;;;;;10.63;7.68;;;12.50;99.90;;;;;;5045151;28;20036;-78
2022/06/16 03:24:00;;;;;;;17.45;8.48;;;12.50;99.90;;;;;;5032435;28;20093;-78
2022/06/16 03:26:28;;;;;;;10.90;7.35;;;12.50;99.90;;;;;;5048073;28;20072;-78
2022/06/16 03:28:57;;;;;;;10.63;7.97;;;12.50;99.90;;;;;;5032152;28;20040;-79
2022/06/16 03:31:24;;;;;;;11.75;7.78;;;12.50;99.90;;;;;;5027941;28;20050;-79
2022/06/16 03:33:53;;;;;;;10.15;8.27;;;12.40;99.90;;;;;;5031624;28;20086;-79
2022/06/16 03:36:23;;;;;;;13.75;7.55;;;12.40;99.90;;;;;;5073293;28;20099;-79
2022/06/16 03:38:49;;;;;;;9.85;7.47;;;12.40;99.90;;;;;;5030762;28;20058;-79
2022/06/16 03:41:17;;;;;;;8.32;6.78;;;12.40;99.90;;;;;;5011482;28;20063;-79
2022/06/16 03:43:44;;;;;;;9.70;7.15;;;12.30;99.90;;;;;;5013400;28;20052;-79
2022/06/16 03:46:16;;;;;;;11.90;8.27;;;12.30;99.90;;;;;;5076486;28;20031;-79
2022/06/16 03:48:51;;;;;;;10.88;7.32;;;12.30;99.90;;;;;;5049422;28;20077;-79
2022/06/16 03:51:27;;;;;;;10.43;7.88;;;12.20;99.90;;;;;;5041019;28;20455;-79
2022/06/16 03:53:53;;;;;;;12.15;8.57;;;12.10;99.90;;;;;;5036581;28;20749;-80
2022/06/16 03:56:19;;;;;;;12.52;8.45;;;12.00;99.90;;;;;;5026955;28;20569;-79
2022/06/16 03:58:53;;;;;;;11.15;7.80;;;12.00;99.90;;;;;;5042281;28;20576;-80
2022/06/16 04:01:20;;;;;;;11.18;7.75;;;11.90;99.90;;;;;;5064999;28;20048;-79
2022/06/16 04:04:02;;;;;;;12.05;8.68;;;11.90;99.90;;;;;;5064021;28;20052;-80
2022/06/16 04:06:41;;;;;;;9.10;8.20;;;11.80;99.90;;;;;;5062946;28;20135;-79
2022/06/16 04:09:08;;;;;;;11.55;8.55;;;11.80;99.90;;;;;;5051219;28;20082;-79
2022/06/16 04:11:35;;;;;;;10.30;8.18;;;11.90;99.90;;;;;;5044747;28;20056;-80
2022/06/16 04:14:08;;;;;;;10.95;8.02;;;11.90;99.90;;;;;;5011943;28;20050;-78
2022/06/16 04:16:39;;;;;;;10.80;8.05;;;12.00;99.90;;;;;;5069105;28;20055;-78
2022/06/16 04:19:07;;;;;;;10.77;7.57;;;12.10;99.90;;;;;;5046154;28;20039;-78
2022/06/16 04:21:39;;;;;;;10.70;8.23;;;12.20;99.90;;;;;;5047059;28;20040;-79
2022/06/16 04:24:33;;;;;;;9.13;7.60;;;12.30;99.90;;;;;;5045051;28;20040;-79
2022/06/16 04:27:00;;;;;;;12.02;7.93;;;12.40;99.90;;;;;;5041019;28;20036;-78
2022/06/16 04:29:27;;;;;;;9.52;7.90;;;12.50;99.90;;;;;;5009211;28;20035;-80
2022/06/16 04:31:55;;;;;;;9.80;6.95;;;12.70;99.90;;;;;;5041558;28;20543;-79
2022/06/16 04:34:28;;;;;;;12.10;7.80;;;12.90;99.90;;;;;;5027202;28;20044;-84
2022/06/16 04:36:54;;;;;;;9.68;7.70;;;13.10;99.90;;;;;;5043072;28;20058;-82
2022/06/16 04:39:20;;;;;;;9.80;6.78;;;13.20;99.90;;;;;;5046741;28;20051;-80
2022/06/16 04:41:50;;;;;;;12.80;7.70;;;13.40;99.90;;;;;;5057099;28;20052;-83
2022/06/16 04:44:17;;;;;;;12.48;7.57;;;13.40;99.90;;;;;;5025962;28;20055;-80
2022/06/16 04:46:46;;;;;;;10.48;6.88;;;13.60;99.90;;;;;;5029354;28;20043;-81
2022/06/16 04:49:14;;;;;;;8.70;7.05;;;13.70;99.90;;;;;;5045248;28;20453;-80
2022/06/16 04:51:44;;;;;;;9.75;6.95;;;13.70;99.90;;;;;;5045880;28;20046;-80
2022/06/16 04:54:11;;;;;;;7.38;6.20;;;13.80;99.90;;;;;;5029465;28;20051;-80
2022/06/16 04:56:48;;;;;;;9.07;6.40;;;13.90;99.90;;;;;;5027339;28;20129;-80
2022/06/16 04:59:32;;;;;;;9.75;6.57;;;14.00;99.90;;;;;;5042778;28;20044;-80
2022/06/16 05:02:24;;;;;;;11.13;6.60;;;14.00;99.90;;;;;;5054197;28;20064;-80
2022/06/16 05:05:11;;;;;;;13.55;5.70;;;14.10;99.90;;;;;;5028519;28;20078;-80
2022/06/16 05:08:09;;;;;;;10.90;5.82;;;14.10;99.90;;;;;;5041441;28;20083;-79
2022/06/16 05:11:04;;;;;;;9.73;5.95;;;14.20;99.90;;;;;;5025782;28;20410;-80
2022/06/16 05:13:52;;;;;;;9.57;6.22;;;14.30;99.90;;;;;;5015499;28;20146;-80
2022/06/16 05:16:41;;;;;;;8.93;5.53;;;14.40;99.90;;;;;;5050110;28;20076;-80
2022/06/16 05:19:21;;;;;;;8.55;5.40;;;14.40;99.90;;;;;;5047470;28;20635;-80
2022/06/16 05:22:07;;;;;;;9.88;5.63;;;14.60;99.90;;;;;;5067389;28;20761;-79
2022/06/16 05:24:52;;;;;;;10.27;5.00;;;14.70;99.90;;;;;;5046044;28;20123;-81
2022/06/16 05:27:36;;;;;;;6.93;5.10;;;14.80;99.90;;;;;;5027677;28;20071;-81
2022/06/16 05:30:22;;;;;;;11.13;6.10;;;14.90;99.90;;;;;;5042659;28;20391;-80
2022/06/16 05:33:08;;;;;;;11.02;6.38;;;14.90;99.90;;;;;;5034523;28;20078;-80
2022/06/16 05:35:59;;;;;;;10.57;5.80;;;15.00;99.90;;;;;;5042795;28;20129;-81
2022/06/16 05:38:38;;;;;;;9.18;6.15;;;15.00;99.90;;;;;;5072352;28;20043;-81
2022/06/16 05:41:27;;;;;;;9.07;5.60;;;15.10;99.90;;;;;;5062510;28;20121;-80
2022/06/16 05:44:09;;;;;;;11.25;5.57;;;15.10;99.90;;;;;;5038788;28;20715;-80
2022/06/16 05:46:40;;;;;;;7.53;5.30;;;15.20;99.90;;;;;;5055421;28;20062;-81
2022/06/16 05:49:07;;;;;;;8.95;5.30;;;15.20;99.90;;;;;;5045487;28;20047;-81
2022/06/16 05:51:34;;;;;;;8.73;5.68;;;15.30;99.90;;;;;;5008093;28;20044;-80
2022/06/16 05:54:04;;;;;;;10.32;5.82;;;15.50;99.90;;;;;;5025665;28;20614;-81
2022/06/16 05:56:33;;;;;;;11.05;5.18;;;15.60;99.90;;;;;;5064649;28;20038;-81
2022/06/16 05:59:00;;;;;;;8.35;4.50;;;15.70;99.90;;;;;;5049028;28;20040;-85
2022/06/16 06:01:27;;;;;;;7.25;4.75;;;15.80;99.90;;;;;;5017019;28;20935;-81
2022/06/16 06:04:02;;;;;;;12.00;6.07;;;15.90;99.90;;;;;;5038399;28;20059;-80
2022/06/16 06:06:29;;;;;;;8.30;5.65;;;16.00;99.90;;;;;;5065072;28;20533;-81
2022/06/16 06:17:19;;;;;;;9.18;4.18;;;17.00;99.90;;;;;;5047283;28;20052;-81
2022/06/16 06:19:47;;;;;;;8.55;3.50;;;17.30;99.90;;;;;;5050440;28;20044;-81
2022/06/16 06:22:19;;;;;;;7.15;3.85;;;17.30;99.90;;;;;;5047222;28;20458;-79
2022/06/16 06:24:53;;;;;;;7.85;4.22;;;17.70;99.90;;;;;;5045041;28;20373;-79
2022/06/16 06:27:34;;;;;;;11.30;6.90;;;18.00;99.90;;;;;;5046317;28;20131;-77
2022/06/16 06:30:04;;;;;;;8.52;3.40;;;18.20;99.90;;;;;;5058432;28;20059;-78
2022/06/16 06:32:31;;;;;;;6.85;4.22;;;18.10;99.90;;;;;;5051110;28;20071;-78
2022/06/16 06:34:57;;;;;;;6.32;3.45;;;18.50;99.90;;;;;;5060775;28;20045;-78
2022/06/16 06:37:26;;;;;;;6.78;3.92;;;18.70;99.90;;;;;;5082163;28;20056;-77
2022/06/16 06:39:52;;;;;;;14.07;11.77;;;18.70;99.90;;;;;;5044174;28;20784;-78
2022/06/16 06:42:19;;;;;;;9.25;4.20;;;18.70;99.90;;;;;;5065432;28;20040;-78
2022/06/16 06:44:47;;;;;;;6.38;3.58;;;18.90;99.90;;;;;;5066085;28;20043;-79
2022/06/16 06:47:29;;;;;;;6.55;3.25;;;18.90;99.90;;;;;;5041963;28;20040;-78
2022/06/16 06:49:56;;;;;;;7.88;3.05;;;19.20;99.90;;;;;;5078562;28;20145;-79
2022/06/16 06:52:22;;;;;;;5.22;2.70;;;19.30;99.90;;;;;;5050800;28;20074;-77
2022/06/16 06:54:48;;;;;;;14.80;10.60;;;19.60;99.90;;;;;;5054686;28;20467;-78
2022/06/16 06:57:22;;;;;;;6.88;2.58;;;19.40;99.90;;;;;;5059844;28;20062;-78
2022/06/16 06:59:48;;;;;;;8.40;5.40;;;19.50;99.90;;;;;;5067394;28;20113;-78
2022/06/16 07:02:16;;;;;;;21.80;18.40;;;19.50;99.90;;;;;;5046993;28;20559;-78
2022/06/16 07:04:42;;;;;;;4.28;2.20;;;20.00;99.90;;;;;;5021544;28;20496;-76
2022/06/16 07:07:13;;;;;;;4.85;1.95;;;20.00;99.90;;;;;;5044400;28;20114;-82
2022/06/16 07:09:39;;;;;;;4.40;1.52;;;20.20;99.90;;;;;;5060462;28;20073;-79
2022/06/16 07:12:13;;;;;;;3.75;1.50;;;20.30;99.90;;;;;;5025189;28;20651;-78
2022/06/16 07:14:44;;;;;;;4.93;1.35;;;20.40;99.90;;;;;;5042276;28;20430;-77
2022/06/16 07:17:11;;;;;;;16.02;13.38;;;20.70;99.90;;;;;;5028416;28;20083;-78
2022/06/16 07:19:37;;;;;;;3.45;1.77;;;20.70;99.90;;;;;;5056199;28;20462;-76
2022/06/16 07:22:04;;;;;;;10.55;8.35;;;20.60;99.90;;;;;;5044654;28;20049;-83
2022/06/16 07:24:31;;;;;;;15.00;13.38;;;20.90;99.90;;;;;;5052619;28;20044;-80
2022/06/16 07:26:57;;;;;;;88.93;80.75;;;21.00;99.90;;;;;;5055123;28;20052;-79
2022/06/16 07:29:23;;;;;;;72.22;18.05;;;21.20;99.90;;;;;;5028847;28;20044;-79
2022/06/16 07:31:50;;;;;;;8.88;4.25;;;21.30;99.90;;;;;;5056627;28;20048;-82
2022/06/16 07:34:17;;;;;;;4.85;2.45;;;21.50;99.90;;;;;;5075944;28;20105;-83
2022/06/16 07:36:46;;;;;;;4.80;1.73;;;21.80;99.90;;;;;;5065045;28;20581;-83
2022/06/16 07:39:12;;;;;;;4.55;2.33;;;21.90;99.90;;;;;;5062652;28;20044;-83
2022/06/16 07:41:39;;;;;;;2.63;1.50;;;22.00;99.90;;;;;;5027454;28;20500;-82
2022/06/16 07:44:11;;;;;;;4.05;1.52;;;22.30;99.90;;;;;;5029740;28;20499;-82
2022/06/16 07:46:40;;;;;;;4.78;2.78;;;22.60;93.40;;;;;;5031028;28;20050;-82
2022/06/16 07:49:11;;;;;;;7.35;4.72;;;22.50;95.80;;;;;;5054815;28;20046;-83
2022/06/16 07:51:37;;;;;;;8.35;3.53;;;22.70;95.70;;;;;;5052545;28;20055;-82
2022/06/16 07:54:04;;;;;;;4.50;2.22;;;22.80;96.90;;;;;;5030836;28;20247;-82
2022/06/16 07:56:30;;;;;;;2.88;1.10;;;22.50;91.20;;;;;;4995749;28;20051;-83
2022/06/16 07:58:56;;;;;;;4.25;1.60;;;22.70;92.60;;;;;;5036716;28;20047;-82
2022/06/16 08:01:22;;;;;;;4.20;1.60;;;22.80;78.80;;;;;;5050757;28;20798;-82
2022/06/16 08:03:48;;;;;;;4.35;1.88;;;22.80;89.20;;;;;;5044187;28;20677;-83
2022/06/16 08:06:17;;;;;;;7.30;3.95;;;23.10;91.10;;;;;;5023309;28;20044;-83
2022/06/16 08:08:44;;;;;;;3.42;1.80;;;23.20;82.90;;;;;;5032886;28;20043;-82
2022/06/16 08:13:59;;;;;;;3.20;1.08;;;23.50;88.70;;;;;;5050712;28;20274;-83
2022/06/16 08:16:30;;;;;;;6.60;3.13;;;23.50;84.80;;;;;;5057044;28;20040;-83
2022/06/16 08:18:57;;;;;;;4.33;2.20;;;23.80;83.70;;;;;;5066430;28;20044;-83
2022/06/16 08:21:23;;;;;;;5.20;2.22;;;23.80;70.80;;;;;;5015160;28;20308;-83
2022/06/16 08:23:49;;;;;;;5.53;1.30;;;24.00;68.60;;;;;;5034716;28;20082;-83
2022/06/16 08:26:15;;;;;;;4.93;1.88;;;24.00;66.20;;;;;;5041016;28;20135;-83
2022/06/16 08:28:41;;;;;;;6.35;1.65;;;24.00;67.70;;;;;;5041606;28;20048;-83
2022/06/16 08:31:08;;;;;;;5.38;1.88;;;24.20;74.60;;;;;;5057693;28;20048;-83
2022/06/16 08:33:34;;;;;;;4.45;1.23;;;24.30;63.10;;;;;;5035875;28;20052;-82
2022/06/16 08:36:00;;;;;;;53.72;17.48;;;24.20;62.00;;;;;;5045344;28;20071;-82
2022/06/16 08:38:26;;;;;;;35.03;13.80;;;24.50;60.80;;;;;;5053807;28;20055;-82
2022/06/16 08:41:13;;;;;;;15.20;13.25;;;24.70;58.90;;;;;;5050988;28;20047;-82
2022/06/16 08:43:51;;;;;;;4.90;2.20;;;24.70;57.40;;;;;;5034028;28;20400;-82
2022/06/16 08:46:19;;;;;;;4.60;2.60;;;24.50;55.80;;;;;;5042354;28;20467;-83
2022/06/16 08:49:23;;;;;;;3.78;1.75;;;24.50;58.30;;;;;;5028349;28;20573;-83
2022/06/16 08:52:08;;;;;;;4.45;2.28;;;25.00;58.50;;;;;;5011101;28;20082;-83
2022/06/16 08:54:54;;;;;;;5.50;2.30;;;25.00;57.60;;;;;;5052576;28;20134;-83
2022/06/16 08:57:29;;;;;;;4.72;1.48;;;25.30;55.90;;;;;;5073947;28;20036;-83
2022/06/16 09:00:09;;;;;;;7.95;5.53;;;25.40;55.60;;;;;;5041493;28;20171;-83
2022/06/16 09:02:58;;;;;;;3.75;1.67;;;25.50;56.20;;;;;;5073622;28;20127;-83
2022/06/16 09:05:36;;;;;;;5.63;1.70;;;25.50;54.90;;;;;;5037985;28;20102;-83
2022/06/16 09:08:21;;;;;;;5.30;1.60;;;25.20;54.10;;;;;;5049296;28;20136;-83
2022/06/16 09:11:10;;;;;;;6.03;2.63;;;25.40;55.00;;;;;;5056400;28;20144;-83
2022/06/16 09:13:46;;;;;;;2.70;1.33;;;25.60;53.70;;;;;;5056726;28;20059;-83
2022/06/16 09:16:28;;;;;;;4.25;2.15;;;25.50;54.90;;;;;;5049542;28;20162;-83
2022/06/16 09:19:25;;;;;;;3.22;1.50;;;25.80;53.70;;;;;;5065969;28;20048;-84
2022/06/16 09:22:41;;;;;;;3.70;1.55;;;25.80;53.20;;;;;;5038025;28;20071;-84
2022/06/16 09:25:51;;;;;;;7.20;2.00;;;25.90;54.00;;;;;;5051232;28;20064;-83
2022/06/16 09:28:28;;;;;;;5.65;2.85;;;26.00;51.90;;;;;;5022059;28;20921;-84
2022/06/16 09:30:57;;;;;;;7.97;3.15;;;26.50;54.30;;;;;;5004020;28;20037;-84
2022/06/16 09:33:39;;;;;;;6.05;1.55;;;26.00;51.90;;;;;;5025028;28;20047;-84
2022/06/16 09:36:35;;;;;;;5.47;2.75;;;26.50;52.90;;;;;;5052988;28;20064;-83
2022/06/16 09:39:11;;;;;;;5.00;1.70;;;26.60;50.60;;;;;;5052185;28;20076;-84
2022/06/16 09:44:49;;;;;;;4.07;1.35;;;26.70;52.00;;;;;;5073884;28;20491;-84
2022/06/16 09:47:21;;;;;;;4.38;1.70;;;26.90;49.90;;;;;;5071997;28;20524;-85
2022/06/16 09:49:57;;;;;;;4.55;1.77;;;26.60;49.20;;;;;;5044572;28;20040;-85
2022/06/16 09:52:33;;;;;;;4.03;1.80;;;26.90;50.90;;;;;;5060670;28;20044;-86
2022/06/16 09:55:05;;;;;;;3.53;1.73;;;26.70;50.70;;;;;;5059249;28;20105;-85
2022/06/16 09:57:42;;;;;;;3.78;1.83;;;26.50;50.80;;;;;;5033567;28;20044;-84
2022/06/16 10:00:15;;;;;;;5.68;2.10;;;26.30;50.90;;;;;;5037841;28;20075;-84
2022/06/16 10:02:49;;;;;;;5.85;1.80;;;26.40;52.30;;;;;;5047683;28;20101;-84
2022/06/16 10:05:21;;;;;;;3.95;1.70;;;26.90;51.10;;;;;;5047604;28;20507;-81
2022/06/16 10:08:13;;;;;;;6.55;2.28;;;26.80;50.10;;;;;;5086324;28;20089;-84
2022/06/16 10:10:53;;;;;;;5.20;2.03;;;27.20;51.30;;;;;;5061171;28;20089;-85
2022/06/16 10:13:31;;;;;;;3.87;2.30;;;26.90;50.00;;;;;;5047933;28;20097;-84
2022/06/16 10:16:09;;;;;;;6.22;2.35;;;26.50;49.80;;;;;;5076142;28;20303;-85
2022/06/16 10:18:35;;;;;;;6.00;2.60;;;26.60;51.80;;;;;;5051051;28;21000;-84
2022/06/16 10:21:07;;;;;;;7.05;3.45;;;26.50;51.30;;;;;;5036163;28;20044;-85
2022/06/16 10:23:56;;;;;;;7.13;5.03;;;26.60;51.10;;;;;;5041559;28;20121;-84
2022/06/16 10:26:22;;;;;;;5.45;2.28;;;26.80;51.70;;;;;;5064004;28;20048;-85
2022/06/16 10:29:21;;;;;;;4.85;2.08;;;27.20;51.00;;;;;;5048109;28;20048;-85
2022/06/16 10:31:49;;;;;;;6.55;2.30;;;27.60;49.80;;;;;;5083516;28;20039;-84
2022/06/16 10:34:31;;;;;;;6.53;2.58;;;27.70;48.30;;;;;;5063154;28;20059;-84
2022/06/16 10:37:01;;;;;;;5.80;2.15;;;28.00;48.60;;;;;;5046860;28;20047;-84
2022/06/16 10:39:55;;;;;;;6.25;2.80;;;27.70;48.30;;;;;;5059696;28;20142;-83
2022/06/16 10:42:41;;;;;;;9.95;6.22;;;27.90;48.30;;;;;;5045013;28;20059;-83
2022/06/16 10:45:30;;;;;;;22.48;20.13;;;28.20;48.80;;;;;;5068394;28;20399;-84
2022/06/16 10:48:03;;;;;;;7.13;3.05;;;28.00;49.50;;;;;;5061384;28;20103;-84
2022/06/16 10:50:35;;;;;;;8.20;4.82;;;27.90;48.30;;;;;;5057810;28;20170;-85
2022/06/16 10:53:20;;;;;;;4.05;2.35;;;28.30;48.80;;;;;;5055923;28;20083;-84
2022/06/16 10:55:47;;;;;;;4.40;2.38;;;27.70;49.00;;;;;;5056025;28;20177;-85
2022/06/16 10:58:18;;;;;;;4.65;2.42;;;28.30;47.50;;;;;;5049318;28;20484;-85
2022/06/16 11:01:17;;;;;;;5.57;3.08;;;28.70;48.10;;;;;;5044053;28;20079;-85
2022/06/16 11:03:52;;;;;;;8.55;6.93;;;28.80;45.20;;;;;;5070463;28;20840;-85
2022/06/16 11:06:23;;;;;;;6.35;4.13;;;28.70;46.60;;;;;;5036887;28;20051;-85
2022/06/16 11:09:05;;;;;;;7.25;2.83;;;28.80;46.40;;;;;;5031411;28;20051;-85
2022/06/16 11:11:42;;;;;;;8.32;5.65;;;28.90;46.20;;;;;;5031722;28;20842;-85
2022/06/16 11:14:30;;;;;;;5.47;2.75;;;29.30;46.40;;;;;;5098068;27;20041;-85
2022/06/16 11:16:57;;;;;;;6.25;2.15;;;29.40;43.60;;;;;;5069847;28;20075;-85
2022/06/16 11:19:35;;;;;;;9.10;2.60;;;29.70;45.40;;;;;;5070397;28;20044;-84
2022/06/16 11:22:16;;;;;;;7.35;2.92;;;29.50;43.90;;;;;;5069170;28;20040;-84
2022/06/16 11:24:53;;;;;;;3.92;2.17;;;29.30;44.20;;;;;;5076000;28;20062;-84
2022/06/16 11:27:19;;;;;;;6.60;2.75;;;29.60;44.50;;;;;;5073062;28;20123;-85
2022/06/16 11:29:45;;;;;;;6.22;2.75;;;29.70;43.80;;;;;;5085454;28;20052;-85
2022/06/16 11:32:19;;;;;;;5.43;2.65;;;29.80;43.90;;;;;;5041515;28;20054;-85
2022/06/16 11:34:47;;;;;;;9.35;2.88;;;29.10;43.10;;;;;;5048749;28;20059;-85
2022/06/16 11:37:47;;;;;;;6.50;2.92;;;29.10;44.10;;;;;;5075104;28;20150;-85
2022/06/16 11:40:31;;;;;;;4.77;2.17;;;28.80;43.50;;;;;;5030846;28;20601;-85
2022/06/16 11:43:10;;;;;;;6.70;2.53;;;29.50;44.60;;;;;;5057882;28;20419;-85
2022/06/16 11:46:35;;;;;;;4.40;2.45;;;29.40;42.70;;;;;;5043520;28;20705;-85
2022/06/16 11:49:04;;;;;;;6.68;2.80;;;29.10;43.50;;;;;;5051267;28;20047;-84
2022/06/16 11:51:49;;;;;;;8.35;2.33;;;28.50;43.70;;;;;;5044368;28;20615;-84
2022/06/16 11:54:43;;;;;;;4.00;2.05;;;28.50;44.50;;;;;;5046892;28;20116;-83
2022/06/16 11:57:34;;;;;;;5.25;2.17;;;28.80;43.80;;;;;;5055120;28;20067;-85
2022/06/16 12:00:18;;;;;;;4.65;2.05;;;28.90;44.60;;;;;;5069983;28;20744;-84
2022/06/16 12:03:09;;;;;;;4.63;2.10;;;29.20;47.90;;;;;;5069143;28;20041;-84
2022/06/16 12:06:16;;;;;;;4.90;2.00;;;29.30;46.00;;;;;;5072605;28;20135;-85
2022/06/16 12:09:02;;;;;;;5.40;2.47;;;29.40;43.20;;;;;;5046240;28;20121;-85
2022/06/16 12:11:47;;;;;;;3.83;2.10;;;29.40;44.10;;;;;;5069058;28;20094;-85
2022/06/16 12:14:51;;;;;;;4.97;1.83;;;29.90;44.00;;;;;;5049015;28;20051;-84
2022/06/16 12:17:28;;;;;;;4.03;2.45;;;28.90;43.40;;;;;;5071141;28;20146;-84
2022/06/16 12:20:04;;;;;;;4.22;2.15;;;28.80;43.20;;;;;;5079317;28;20052;-85
2022/06/16 12:22:40;;;;;;;5.18;1.98;;;27.90;43.90;;;;;;5058802;28;20589;-85
2022/06/16 12:25:09;;;;;;;4.13;2.00;;;27.90;45.80;;;;;;5041139;28;20044;-85
2022/06/16 12:27:46;;;;;;;4.65;2.80;;;28.00;45.70;;;;;;5026802;28;20041;-84
2022/06/16 12:30:24;;;;;;;3.80;2.42;;;28.70;45.50;;;;;;5078002;28;20055;-84
2022/06/16 12:33:16;;;;;;;3.92;2.50;;;29.10;44.90;;;;;;5049602;28;20085;-86
2022/06/16 12:36:03;;;;;;;10.75;9.63;;;29.60;44.80;;;;;;5036915;28;20515;-86
2022/06/16 12:38:45;;;;;;;8.73;5.85;;;29.10;44.10;;;;;;5048100;28;20075;-86
2022/06/16 12:41:37;;;;;;;34.92;31.67;;;28.50;43.70;;;;;;5043140;28;20104;-86
2022/06/16 12:44:09;;;;;;;6.43;4.03;;;28.00;44.90;;;;;;5069039;28;20314;-86
2022/06/16 12:47:02;;;;;;;12.32;10.73;;;27.90;45.30;;;;;;5071162;28;20070;-87
2022/06/16 12:49:34;;;;;;;7.60;4.82;;;28.60;45.40;;;;;;5059425;28;20048;-86
2022/06/16 12:52:07;;;;;;;13.07;10.13;;;28.10;44.20;;;;;;5045705;28;20078;-85
2022/06/16 12:54:50;;;;;;;4.32;2.55;;;28.00;45.70;;;;;;5062751;28;20044;-86
2022/06/16 12:57:26;;;;;;;6.38;2.95;;;27.70;45.00;;;;;;5078819;28;20423;-85
2022/06/16 13:00:10;;;;;;;5.70;3.08;;;27.80;46.70;;;;;;5043787;28;20045;-87
2022/06/16 13:02:50;;;;;;;5.85;4.55;;;28.40;46.40;;;;;;5074976;28;20496;-86
2022/06/16 13:05:19;;;;;;;9.68;7.40;;;28.80;44.40;;;;;;5054685;28;20044;-87
2022/06/16 13:07:53;;;;;;;27.17;24.50;;;29.50;44.00;;;;;;5074865;28;20512;-86
2022/06/16 13:10:19;;;;;;;11.00;9.60;;;29.40;43.30;;;;;;5052264;28;20109;-86
2022/06/16 13:12:53;;;;;;;12.43;11.20;;;29.80;43.30;;;;;;5031720;28;20051;-86
2022/06/16 13:15:26;;;;;;;6.25;4.40;;;30.00;44.10;;;;;;5055498;28;20044;-86
2022/06/16 13:18:01;;;;;;;6.10;2.80;;;30.30;41.90;;;;;;5069227;28;20053;-86
2022/06/16 13:20:31;;;;;;;10.98;9.18;;;29.90;42.20;;;;;;5039453;28;20632;-86
2022/06/16 13:23:03;;;;;;;4.43;2.35;;;29.10;43.00;;;;;;5040710;28;20043;-85
2022/06/16 13:25:50;;;;;;;6.15;3.78;;;28.50;43.80;;;;;;5061417;28;20052;-85
2022/06/16 13:28:39;;;;;;;6.50;2.85;;;28.20;44.30;;;;;;5073519;28;20561;-86
2022/06/16 13:31:29;;;;;;;4.80;2.50;;;27.70;45.40;;;;;;5044547;28;20127;-84
2022/06/16 13:33:55;;;;;;;4.95;2.72;;;27.30;46.00;;;;;;5038536;28;20748;-85
2022/06/16 13:36:30;;;;;;;4.85;2.58;;;27.20;46.00;;;;;;5026798;28;20066;-86
2022/06/16 13:39:05;;;;;;;4.40;2.67;;;27.70;46.60;;;;;;5045307;28;20051;-86
2022/06/16 13:41:37;;;;;;;5.30;2.45;;;28.10;45.60;;;;;;5047521;28;20475;-86
2022/06/16 13:44:26;;;;;;;7.22;2.53;;;28.80;45.20;;;;;;5056043;28;20543;-83
2022/06/16 13:46:58;;;;;;;4.72;2.97;;;29.10;42.80;;;;;;5051060;28;20070;-85
2022/06/16 13:49:28;;;;;;;4.93;2.42;;;28.70;44.80;;;;;;5061646;28;20040;-84